createdAt,value
2022-08-17T00:00:43.402Z,24.82
2022-08-17T00:03:19.109Z,24.78
2022-08-17T00:06:12.831Z,24.69
2022-08-17T00:08:56.136Z,24.63
2022-08-17T00:11:26.990Z,24.64
2022-08-17T00:14:01.806Z,24.59
2022-08-17T00:16:51.929Z,24.57
2022-08-17T00:19:26.525Z,24.52
2022-08-17T00:22:32.279Z,24.45
2022-08-17T00:24:47.285Z,24.45
2022-08-17T00:27:16.000Z,24.41
2022-08-17T00:29:46.484Z,24.34
2022-08-17T00:33:11.652Z,24.32
2022-08-17T00:35:10.044Z,24.33
2022-08-17T00:37:38.921Z,24.33
2022-08-17T00:40:11.183Z,24.33
2022-08-17T00:42:40.408Z,24.30
2022-08-17T00:45:11.019Z,24.20
2022-08-17T00:47:39.684Z,24.23
2022-08-17T00:50:12.000Z,24.19
2022-08-17T00:52:46.737Z,24.16
2022-08-17T00:55:15.720Z,24.13
2022-08-17T00:57:51.191Z,24.09
2022-08-17T01:00:27.599Z,24.07
2022-08-17T01:03:07.240Z,24.11
2022-08-17T01:05:42.551Z,24.08
2022-08-17T01:08:14.479Z,24.11
2022-08-17T01:10:59.864Z,24.09
2022-08-17T01:13:40.976Z,24.07
2022-08-17T01:16:36.397Z,24.00
2022-08-17T01:19:17.596Z,23.93
2022-08-17T01:22:08.510Z,23.90
2022-08-17T01:24:40.407Z,23.86
2022-08-17T01:27:10.946Z,23.81
2022-08-17T01:29:41.909Z,23.81
2022-08-17T01:32:10.794Z,23.76
2022-08-17T01:34:43.395Z,23.77
2022-08-17T01:37:14.819Z,23.76
2022-08-17T01:39:48.468Z,23.71
2022-08-17T01:42:22.139Z,23.68
2022-08-17T01:44:57.665Z,23.64
2022-08-17T01:47:26.464Z,23.65
2022-08-17T01:49:58.181Z,23.65
2022-08-17T01:52:26.909Z,23.64
2022-08-17T01:54:56.304Z,23.54
2022-08-17T01:57:24.579Z,23.49
2022-08-17T01:59:53.137Z,23.49
2022-08-17T02:02:31.156Z,23.38
2022-08-17T02:05:00.605Z,23.37
2022-08-17T02:07:29.599Z,23.38
2022-08-17T02:09:58.039Z,23.32
2022-08-17T02:12:39.249Z,23.31
2022-08-17T02:15:10.710Z,23.28
2022-08-17T02:17:41.363Z,23.32
2022-08-17T02:20:11.584Z,23.30
2022-08-17T02:22:45.131Z,23.33
2022-08-17T02:25:19.150Z,23.26
2022-08-17T02:27:52.791Z,23.30
2022-08-17T02:31:00.859Z,23.25
2022-08-17T02:33:10.034Z,23.09
2022-08-17T02:35:39.755Z,23.12
2022-08-17T02:38:08.630Z,23.16
2022-08-17T02:40:38.106Z,23.22
2022-08-17T02:43:07.514Z,23.19
2022-08-17T02:45:36.239Z,23.17
2022-08-17T02:48:05.604Z,23.19
2022-08-17T02:50:34.611Z,23.21
2022-08-17T02:53:04.619Z,23.21
2022-08-17T02:55:41.210Z,23.27
2022-08-17T02:58:11.254Z,23.35
2022-08-17T03:00:43.373Z,23.34
2022-08-17T03:03:14.043Z,23.37
2022-08-17T03:05:42.934Z,23.36
2022-08-17T03:08:13.061Z,23.31
2022-08-17T03:10:43.819Z,23.26
2022-08-17T03:13:15.095Z,23.19
2022-08-17T03:15:48.017Z,23.15
2022-08-17T03:18:24.650Z,23.17
2022-08-17T03:20:56.986Z,23.11
2022-08-17T03:23:26.064Z,23.00
2022-08-17T03:25:56.343Z,23.00
2022-08-17T03:28:25.707Z,23.00
2022-08-17T03:30:54.651Z,23.01
2022-08-17T03:33:23.469Z,23.03
2022-08-17T03:35:52.745Z,23.08
2022-08-17T03:38:21.434Z,23.01
2022-08-17T03:40:57.226Z,23.02
2022-08-17T03:43:32.787Z,23.00
2022-08-17T03:46:34.126Z,23.00
2022-08-17T03:49:24.185Z,22.93
2022-08-17T03:52:12.329Z,22.89
2022-08-17T03:55:01.027Z,22.86
2022-08-17T03:57:30.241Z,22.87
2022-08-17T03:59:58.837Z,22.84
2022-08-17T04:02:33.569Z,22.82
2022-08-17T04:05:02.471Z,22.78
2022-08-17T04:07:32.744Z,22.79
2022-08-17T04:10:01.865Z,22.73
2022-08-17T04:12:45.104Z,22.68
2022-08-17T04:15:13.985Z,22.64
2022-08-17T04:17:44.797Z,22.58
2022-08-17T04:20:15.946Z,22.58
2022-08-17T04:23:04.427Z,22.56
2022-08-17T04:25:36.035Z,22.50
2022-08-17T04:28:05.909Z,22.50
2022-08-17T04:30:45.984Z,22.49
2022-08-17T04:33:21.044Z,22.52
2022-08-17T04:35:52.299Z,22.52
2022-08-17T04:38:23.615Z,22.56
2022-08-17T04:41:11.701Z,22.57
2022-08-17T04:43:41.776Z,22.59
2022-08-17T04:46:16.359Z,22.55
2022-08-17T04:48:47.114Z,22.56
2022-08-17T04:51:26.244Z,22.55
2022-08-17T04:53:58.748Z,22.54
2022-08-17T04:56:28.374Z,22.53
2022-08-17T04:59:00.140Z,22.49
2022-08-17T05:01:31.959Z,22.55
2022-08-17T05:04:33.258Z,22.57
2022-08-17T05:06:55.935Z,22.62
2022-08-17T05:09:24.254Z,22.68
2022-08-17T05:11:52.897Z,22.71
2022-08-17T05:14:32.952Z,22.74
2022-08-17T05:17:07.433Z,22.74
2022-08-17T05:19:39.655Z,22.80
2022-08-17T05:22:08.455Z,22.80
2022-08-17T05:24:38.419Z,22.83
2022-08-17T05:27:08.270Z,22.85
2022-08-17T05:29:37.274Z,22.87
2022-08-17T05:32:39.173Z,22.85
2022-08-17T05:35:01.950Z,22.98
2022-08-17T05:37:30.829Z,23.02
2022-08-17T05:39:59.683Z,23.05
2022-08-17T05:42:28.542Z,23.16
2022-08-17T05:45:00.271Z,23.09
2022-08-17T05:47:29.470Z,23.14
2022-08-17T05:50:00.040Z,23.27
2022-08-17T05:52:39.710Z,23.25
2022-08-17T19:17:17.502Z,23.95
2022-08-17T19:20:03.880Z,24.02
2022-08-17T19:23:07.157Z,24.11
2022-08-17T19:25:41.160Z,24.25
2022-08-17T19:28:42.155Z,24.37
2022-08-17T19:31:29.474Z,24.46
2022-08-17T19:34:01.010Z,24.49
2022-08-17T19:36:57.692Z,24.56
2022-08-17T19:39:41.790Z,24.62
2022-08-17T19:42:19.936Z,24.63
2022-08-17T19:44:57.586Z,24.69
2022-08-17T19:47:53.170Z,24.69
2022-08-17T19:50:58.980Z,24.74
2022-08-17T19:53:54.208Z,24.74
2022-08-17T19:56:43.977Z,24.79
2022-08-17T19:59:16.903Z,24.77
2022-08-17T20:01:51.523Z,24.76
2022-08-17T20:04:44.025Z,24.74
2022-08-17T20:07:23.255Z,24.73
2022-08-17T20:10:03.111Z,24.68
2022-08-17T20:12:38.016Z,24.70
2022-08-17T20:15:17.781Z,24.69
2022-08-17T20:17:48.436Z,24.56
2022-08-17T20:20:25.561Z,24.56
2022-08-17T20:23:12.488Z,24.57
2022-08-17T20:26:05.522Z,24.50
2022-08-17T20:28:36.765Z,24.25
2022-08-17T20:31:43.778Z,24.17
2022-08-17T20:34:33.540Z,24.10
2022-08-17T20:37:15.601Z,24.13
2022-08-17T20:40:09.792Z,23.96
2022-08-17T20:42:40.045Z,23.91
2022-08-17T20:45:26.873Z,23.79
2022-08-17T20:48:27.224Z,23.92
2022-08-17T20:50:59.710Z,23.96
2022-08-17T20:53:49.755Z,23.91
2022-08-17T20:56:43.887Z,23.88
2022-08-17T20:59:21.891Z,23.95
2022-08-17T21:02:18.508Z,23.93
2022-08-17T21:04:50.790Z,24.04
2022-08-17T21:07:42.932Z,23.86
2022-08-17T21:10:19.006Z,23.95
2022-08-17T21:12:53.665Z,23.91
2022-08-17T21:16:01.551Z,23.96
2022-08-17T21:18:45.172Z,24.00
2022-08-17T21:21:32.439Z,23.98
2022-08-17T21:24:20.155Z,23.92
2022-08-17T21:26:56.142Z,23.70
2022-08-17T21:29:32.287Z,23.63
2022-08-17T21:32:02.721Z,23.62
2022-08-17T21:34:34.825Z,23.67
2022-08-17T21:37:23.362Z,23.68
2022-08-17T21:39:55.990Z,23.62
2022-08-17T21:42:32.131Z,23.65
2022-08-17T21:45:22.386Z,23.67
2022-08-17T21:48:08.756Z,23.68
2022-08-17T21:50:38.217Z,23.70
2022-08-17T21:53:07.360Z,23.68
2022-08-17T21:55:37.992Z,23.67
2022-08-17T21:58:19.771Z,23.65
2022-08-17T22:01:13.512Z,23.59
2022-08-17T22:03:42.620Z,23.57
2022-08-17T22:06:56.744Z,23.48
2022-08-17T22:09:27.971Z,23.53
2022-08-17T22:12:01.085Z,23.46
2022-08-17T22:14:52.301Z,23.45
2022-08-17T22:17:28.447Z,23.46
2022-08-17T22:20:07.059Z,23.44
2022-08-17T22:23:00.722Z,23.37
2022-08-17T22:25:31.918Z,23.36
2022-08-17T22:28:04.036Z,23.37
2022-08-17T22:30:38.957Z,23.30
2022-08-17T22:33:41.450Z,23.26
2022-08-17T22:36:29.508Z,23.22
2022-08-17T22:39:23.523Z,23.19
2022-08-17T22:41:56.595Z,23.13
2022-08-17T22:44:32.402Z,23.09
2022-08-17T22:47:31.357Z,23.08
2022-08-17T22:50:03.277Z,23.10
2022-08-17T22:53:01.957Z,23.03
2022-08-17T22:55:51.156Z,23.04
2022-08-17T22:58:41.238Z,23.02
2022-08-17T23:01:31.007Z,23.02
2022-08-17T23:04:08.690Z,23.00
2022-08-17T23:06:39.938Z,22.94
2022-08-17T23:09:09.053Z,22.95
2022-08-17T23:11:48.722Z,22.94
2022-08-17T23:14:21.005Z,22.91
2022-08-17T23:16:51.696Z,22.88
2022-08-17T23:19:22.289Z,22.81
2022-08-17T23:21:53.926Z,22.81
2022-08-17T23:24:25.967Z,22.85
2022-08-17T23:26:57.807Z,22.82
2022-08-17T23:29:30.131Z,22.80
2022-08-17T23:32:02.093Z,22.74
2022-08-17T23:34:31.047Z,22.65
2022-08-17T23:37:03.528Z,22.63
2022-08-17T23:39:32.754Z,22.65
2022-08-17T23:42:05.848Z,22.69
2022-08-17T23:44:36.526Z,22.72
2022-08-17T23:47:05.658Z,22.69
2022-08-17T23:49:34.332Z,22.72
2022-08-17T23:52:08.091Z,22.74
2022-08-17T23:54:45.076Z,22.75
2022-08-17T23:57:17.353Z,22.75
2022-08-17T23:59:46.353Z,22.75
